Time;durP1;ratioP1;P1;durP2;ratioP2;P2;SDS_P1;SDS_P2;PMS_P1;PMS_P2;Temp;Humidity;BMP_temperature;BMP_pressure;BME280_temperature;BME280_humidity;BME280_pressure;Samples;Min_cycle;Max_cycle;Signal;HPM_P1;HPM_P2
2023/04/11 00:00:32;;;;;;;8.40;5.15;;;;;;;-144.73;100.00;54407.69;5023389;28;20017;-79
2023/04/11 00:03:00;;;;;;;7.75;5.10;;;;;;;-144.73;100.00;54440.53;5017743;28;20045;-79
2023/04/11 00:05:32;;;;;;;8.18;5.15;;;;;;;-144.73;100.00;54346.13;5037548;28;20021;-78
2023/04/11 00:07:57;;;;;;;7.82;5.40;;;;;;;-144.73;100.00;54415.91;5032525;28;20033;-79
2023/04/11 00:10:23;;;;;;;8.52;4.97;;;;;;;-144.73;100.00;54428.22;5027212;28;20106;-79
2023/04/11 00:12:48;;;;;;;12.25;6.03;;;;;;;-144.73;100.00;54370.75;5046805;28;20033;-79
2023/04/11 00:15:15;;;;;;;12.27;5.50;;;;;;;-144.73;100.00;54350.22;5021453;28;20052;-79
2023/04/11 00:17:44;;;;;;;10.82;6.07;;;;;;;-144.73;100.00;54383.06;5038672;28;20029;-79
2023/04/11 00:20:11;;;;;;;14.93;6.13;;;;;;;-144.73;100.00;54333.81;5021534;28;20108;-78
2023/04/11 00:22:37;;;;;;;9.35;5.72;;;;;;;-144.73;100.00;54436.44;5018324;28;20088;-80
2023/04/11 00:25:04;;;;;;;12.13;6.10;;;;;;;-144.73;100.00;54407.69;5028356;28;20013;-78
2023/04/11 00:27:29;;;;;;;8.32;5.50;;;;;;;-144.73;100.00;54383.06;5014648;28;20112;-81
2023/04/11 00:29:56;;;;;;;16.13;5.80;;;;;;;-144.73;100.00;54426.16;5034184;28;20052;-80
2023/04/11 00:32:23;;;;;;;8.13;5.55;;;;;;;-144.73;100.00;54407.69;5027568;28;20103;-79
2023/04/11 00:34:48;;;;;;;7.68;5.47;;;;;;;-144.73;100.00;54376.91;5016298;28;20030;-79
2023/04/11 00:37:13;;;;;;;12.35;6.50;;;;;;;-144.73;100.00;54366.66;5039835;28;20121;-79
2023/04/11 00:39:39;;;;;;;10.75;5.43;;;;;;;-144.73;100.00;54391.28;5020770;28;20021;-79
2023/04/11 00:42:06;;;;;;;8.88;6.18;;;;;;;-144.73;100.00;54395.38;5020647;28;20078;-79
2023/04/11 00:44:32;;;;;;;9.23;6.38;;;;;;;-144.73;100.00;54383.06;5053167;28;20032;-80
2023/04/11 00:47:00;;;;;;;13.13;5.40;;;;;;;-144.73;100.00;54428.22;5032807;28;20029;-80
2023/04/11 00:49:26;;;;;;;10.75;6.45;;;;;;;-144.73;100.00;54395.38;5023894;28;20105;-80
2023/04/11 00:51:53;;;;;;;11.35;7.22;;;;;;;-144.73;100.00;54399.50;5022613;28;20057;-79
2023/04/11 00:54:28;;;;;;;12.95;6.97;;;;;;;-144.73;100.00;54378.97;5021744;28;20044;-79
2023/04/11 00:56:57;;;;;;;13.00;6.90;;;;;;;-144.73;100.00;54342.03;5023118;28;20029;-81
2023/04/11 00:59:22;;;;;;;11.13;7.28;;;;;;;-144.73;100.00;54383.06;5026819;28;20037;-82
2023/04/11 01:01:48;;;;;;;11.48;6.55;;;;;;;-144.73;100.00;54407.69;5026992;28;20029;-82
2023/04/11 01:04:16;;;;;;;14.10;7.88;;;;;;;-144.73;100.00;54407.69;5027363;28;20094;-81
2023/04/11 01:06:46;;;;;;;12.20;6.65;;;;;;;-144.73;100.00;54397.44;5021852;28;20034;-81
2023/04/11 01:09:12;;;;;;;9.75;6.93;;;;;;;-144.73;100.00;54432.31;5029925;28;20037;-80
2023/04/11 01:11:38;;;;;;;14.57;7.10;;;;;;;-144.73;100.00;54391.28;5020821;28;20037;-79
2023/04/11 01:14:04;;;;;;;11.63;6.93;;;;;;;-144.73;100.00;54387.19;5022015;28;20036;-82
2023/04/11 01:16:29;;;;;;;11.05;6.97;;;;;;;-144.73;100.00;54397.44;4991387;28;20084;-82
2023/04/11 01:18:55;;;;;;;13.18;6.40;;;;;;;-144.73;100.00;54450.81;5045107;28;20032;-81
2023/04/11 01:21:23;;;;;;;12.10;6.38;;;;;;;-144.73;100.00;54387.19;5028195;28;20060;-80
2023/04/11 01:23:51;;;;;;;13.43;6.53;;;;;;;-144.73;100.00;54391.28;5023444;28;20014;-80
2023/04/11 01:26:17;;;;;;;10.77;6.28;;;;;;;-144.73;100.00;54397.44;5034416;28;20028;-80
2023/04/11 01:28:42;;;;;;;13.27;6.03;;;;;;;-144.73;100.00;54424.13;5036321;28;20052;-80
2023/04/11 01:31:08;;;;;;;11.77;6.03;;;;;;;-144.73;100.00;54374.84;5022166;28;20079;-79
2023/04/11 01:33:34;;;;;;;12.00;6.35;;;;;;;-144.73;100.00;54391.28;5040289;28;20086;-79
2023/04/11 01:35:59;;;;;;;9.10;5.63;;;;;;;-144.73;100.00;54395.38;5012326;28;20128;-79
2023/04/11 01:38:25;;;;;;;10.52;6.10;;;;;;;-144.73;100.00;54391.28;5022865;28;20055;-79
2023/04/11 01:40:52;;;;;;;11.50;6.18;;;;;;;-144.73;100.00;54362.53;5023048;28;20079;-79
2023/04/11 01:43:18;;;;;;;14.05;6.57;;;;;;;-144.73;100.00;54372.81;5025900;28;20029;-79
2023/04/11 01:45:44;;;;;;;14.52;7.40;;;;;;;-144.73;100.00;54397.44;5022603;28;20024;-79
2023/04/11 01:48:10;;;;;;;14.05;8.15;;;;;;;-144.73;100.00;54383.06;5022663;28;20116;-78
2023/04/11 01:50:35;;;;;;;17.73;7.57;;;;;;;-144.73;100.00;54420.00;5027341;28;20057;-77
2023/04/11 01:53:01;;;;;;;14.68;7.15;;;;;;;-144.73;100.00;54436.44;5013312;28;20385;-77
2023/04/11 01:55:26;;;;;;;12.90;7.55;;;;;;;-144.73;100.00;54411.81;5031824;28;20098;-77
2023/04/11 01:57:52;;;;;;;14.48;6.95;;;;;;;-144.73;100.00;54417.97;5023962;28;20067;-76
2023/04/11 02:00:18;;;;;;;15.25;6.68;;;;;;;-144.73;100.00;54374.84;5022845;28;20022;-76
2023/04/11 02:02:44;;;;;;;13.85;5.80;;;;;;;-144.73;100.00;54397.44;5045838;28;20091;-76
2023/04/11 02:05:09;;;;;;;9.35;5.68;;;;;;;-144.73;100.00;54424.13;5048867;28;20029;-77
2023/04/11 02:07:36;;;;;;;13.23;6.10;;;;;;;-144.73;100.00;54417.97;5022070;28;20060;-79
2023/04/11 02:10:02;;;;;;;10.88;6.45;;;;;;;-144.73;100.00;54387.19;5026601;28;20026;-82
2023/04/11 02:12:27;;;;;;;14.73;7.13;;;;;;;-144.73;100.00;54399.50;5053207;28;20093;-81
2023/04/11 02:14:53;;;;;;;15.13;6.35;;;;;;;-144.73;100.00;54383.06;5049553;28;20428;-80
2023/04/11 02:17:21;;;;;;;13.52;6.03;;;;;;;-144.73;100.00;54391.28;5053377;28;20037;-80
2023/04/11 02:19:47;;;;;;;9.13;4.68;;;;;;;-144.73;100.00;54417.97;5012371;28;20043;-79
2023/04/11 02:22:14;;;;;;;16.35;5.30;;;;;;;-144.73;100.00;54411.81;5040798;28;20140;-80
2023/04/11 02:24:40;;;;;;;9.98;4.80;;;;;;;-144.73;100.00;54389.22;5035273;28;20026;-80
2023/04/11 02:27:06;;;;;;;9.27;4.65;;;;;;;-144.73;100.00;54387.19;5027101;28;20025;-80
2023/04/11 02:29:32;;;;;;;8.10;3.80;;;;;;;-144.73;100.00;54387.19;5035496;28;20069;-80
2023/04/11 02:31:58;;;;;;;7.65;3.80;;;;;;;-144.73;100.00;54378.97;5059391;28;20028;-79
2023/04/11 02:34:24;;;;;;;6.43;3.55;;;;;;;-144.73;100.00;54368.69;5047405;28;20095;-79
2023/04/11 02:36:49;;;;;;;8.38;3.67;;;;;;;-144.73;100.00;54424.13;5047024;28;20025;-80
2023/04/11 02:39:15;;;;;;;7.75;3.53;;;;;;;-144.73;100.00;54366.66;5048458;28;20028;-79
2023/04/11 02:41:41;;;;;;;7.70;3.08;;;;;;;-144.73;100.00;54378.97;5023020;28;20017;-79
2023/04/11 02:44:10;;;;;;;5.57;3.38;;;;;;;-144.73;100.00;54424.13;5019426;28;20029;-78
2023/04/11 02:46:35;;;;;;;6.68;3.80;;;;;;;-144.73;100.00;54411.81;5022822;28;20421;-78
2023/04/11 02:49:01;;;;;;;9.93;3.88;;;;;;;-144.73;100.00;54391.28;5045657;28;20044;-77
2023/04/11 02:51:27;;;;;;;7.60;3.63;;;;;;;-144.73;100.00;54381.00;5012007;28;20025;-77
2023/04/11 02:53:53;;;;;;;10.23;4.20;;;;;;;-144.73;100.00;54383.06;5021468;28;20029;-77
2023/04/11 02:56:19;;;;;;;10.23;3.42;;;;;;;-144.73;100.00;54417.97;5017120;28;20037;-77
2023/04/11 02:58:45;;;;;;;9.00;3.97;;;;;;;-144.73;100.00;54424.13;5024008;28;20025;-76
2023/04/11 03:01:13;;;;;;;8.73;3.85;;;;;;;-144.73;100.00;54407.69;5014358;28;20029;-76
2023/04/11 03:03:43;;;;;;;6.90;4.22;;;;;;;-144.73;100.00;54391.28;5012501;28;20064;-75
2023/04/11 03:06:09;;;;;;;9.38;4.53;;;;;;;-144.73;100.00;54407.69;5044856;28;20059;-75
2023/04/11 03:08:35;;;;;;;7.78;4.15;;;;;;;-144.73;100.00;54407.69;5030620;28;20037;-75
2023/04/11 03:11:01;;;;;;;11.25;4.65;;;;;;;-144.73;100.00;54415.91;5032342;28;20057;-75
2023/04/11 03:13:27;;;;;;;7.68;4.78;;;;;;;-144.73;100.00;54409.75;5015180;28;20038;-75
2023/04/11 03:15:53;;;;;;;5.53;3.70;;;;;;;-144.73;100.00;54395.38;5032159;28;20055;-74
2023/04/11 03:18:21;;;;;;;5.57;3.10;;;;;;;-144.73;100.00;54420.00;5015955;28;20025;-74
2023/04/11 03:20:47;;;;;;;2.00;1.75;;;;;;;-144.73;100.00;54411.81;5029504;28;20059;-74
2023/04/11 03:23:13;;;;;;;6.32;1.98;;;;;;;-144.73;100.00;54387.19;5017335;28;20048;-73
2023/04/11 03:25:39;;;;;;;3.80;1.77;;;;;;;-144.73;100.00;54383.06;5038713;28;20085;-74
2023/04/11 03:28:05;;;;;;;4.90;1.58;;;;;;;-144.73;100.00;54358.44;5031734;28;20029;-75
2023/04/11 03:30:30;;;;;;;2.38;1.50;;;;;;;-144.73;100.00;54407.69;5042515;28;20477;-76
2023/04/11 03:32:59;;;;;;;5.05;1.75;;;;;;;-144.73;100.00;54383.06;5017363;28;20036;-75
2023/04/11 03:35:26;;;;;;;6.63;1.85;;;;;;;-144.73;100.00;54424.13;5023748;28;20036;-75
2023/04/11 03:37:52;;;;;;;11.43;2.42;;;;;;;-144.73;100.00;54383.06;5038113;28;20032;-76
2023/04/11 03:40:18;;;;;;;5.47;1.55;;;;;;;-144.73;100.00;54366.66;5016220;28;20029;-76
2023/04/11 03:42:47;;;;;;;5.60;1.83;;;;;;;-144.73;100.00;54411.81;5021198;28;20096;-74
2023/04/11 03:45:12;;;;;;;4.38;1.42;;;;;;;-144.73;100.00;54440.53;5030185;28;20036;-74
2023/04/11 03:47:39;;;;;;;3.38;1.20;;;;;;;-144.73;100.00;54368.69;5012118;28;20025;-74
2023/04/11 03:50:06;;;;;;;4.22;1.20;;;;;;;-144.73;100.00;54424.13;5007350;28;20034;-75
2023/04/11 03:52:33;;;;;;;5.32;1.35;;;;;;;-144.73;100.00;54420.00;5012081;28;20032;-73
2023/04/11 03:54:59;;;;;;;2.55;1.10;;;;;;;-144.73;100.00;54424.13;5030432;28;20022;-74
2023/04/11 03:57:28;;;;;;;3.45;1.20;;;;;;;-144.73;100.00;54362.53;5014711;28;20563;-73
2023/04/11 03:59:57;;;;;;;5.93;1.40;;;;;;;-144.73;100.00;54411.81;5039938;28;20078;-73
2023/04/11 04:02:23;;;;;;;2.63;1.13;;;;;;;-144.73;100.00;54378.97;5016939;28;20032;-73
2023/04/11 04:04:53;;;;;;;9.02;1.60;;;;;;;-144.73;100.00;54383.06;5024469;28;20028;-73
2023/04/11 04:07:23;;;;;;;5.40;1.15;;;;;;;-144.73;100.00;54376.91;5026448;28;20033;-73
2023/04/11 04:09:49;;;;;;;3.60;1.30;;;;;;;-144.73;100.00;54444.66;5013730;28;20025;-72
2023/04/11 04:12:16;;;;;;;7.90;2.20;;;;;;;-144.73;100.00;54374.84;5014795;28;20027;-72
2023/04/11 04:14:42;;;;;;;5.20;1.77;;;;;;;-144.73;100.00;54362.53;5018734;28;20028;-73
2023/04/11 04:17:08;;;;;;;5.15;1.40;;;;;;;-144.73;100.00;54407.69;5020723;28;20108;-73
2023/04/11 04:19:33;;;;;;;4.15;1.40;;;;;;;-144.73;100.00;54378.97;5058054;28;20096;-73
2023/04/11 04:21:59;;;;;;;8.23;1.70;;;;;;;-144.73;100.00;54407.69;5020523;28;20120;-73
2023/04/11 04:24:24;;;;;;;4.53;1.30;;;;;;;-144.73;100.00;54415.91;5020987;28;20175;-73
2023/04/11 04:26:51;;;;;;;2.58;1.30;;;;;;;-144.73;100.00;54407.69;5030215;28;20044;-73
2023/04/11 04:29:17;;;;;;;6.32;1.52;;;;;;;-144.73;100.00;54374.84;5031173;28;20029;-73
2023/04/11 04:31:43;;;;;;;7.00;1.45;;;;;;;-144.73;100.00;54420.00;5031449;28;20052;-73
2023/04/11 04:34:08;;;;;;;2.95;1.10;;;;;;;-144.73;100.00;54378.97;5013192;28;20044;-72
2023/04/11 04:36:55;;;;;;;3.08;1.27;;;;;;;-144.73;100.00;54413.84;5031362;28;20543;-72
2023/04/11 04:39:20;;;;;;;8.05;1.45;;;;;;;-144.73;100.00;54422.06;5026149;28;20027;-73
2023/04/11 04:41:57;;;;;;;3.85;1.40;;;;;;;-144.73;100.00;54411.81;5035102;28;20466;-73
2023/04/11 04:44:23;;;;;;;11.93;1.23;;;;;;;-144.73;100.00;54399.50;5016516;28;20071;-73
2023/04/11 04:46:53;;;;;;;4.68;1.30;;;;;;;-144.73;100.00;54391.28;5043740;28;20029;-73
2023/04/11 04:49:19;;;;;;;4.90;1.30;;;;;;;-144.73;100.00;54391.28;5023433;28;20025;-73
2023/04/11 04:51:44;;;;;;;6.80;1.52;;;;;;;-144.73;100.00;54407.69;5031058;28;20026;-72
2023/04/11 04:54:10;;;;;;;4.05;1.25;;;;;;;-144.73;100.00;54399.50;5012275;28;20022;-73
2023/04/11 04:56:35;;;;;;;9.38;1.63;;;;;;;-144.73;100.00;54366.66;5031433;28;20116;-74
2023/04/11 04:59:01;;;;;;;4.13;1.60;;;;;;;-144.73;100.00;54391.28;5029622;28;20028;-72
2023/04/11 05:01:27;;;;;;;5.90;1.45;;;;;;;-144.73;100.00;54391.28;5028493;28;20029;-72
2023/04/11 05:03:58;;;;;;;3.92;1.33;;;;;;;-144.73;100.00;54395.38;5030819;28;20121;-73
2023/04/11 05:06:28;;;;;;;6.13;1.50;;;;;;;-144.73;100.00;54424.13;5050994;28;20025;-72
2023/04/11 05:08:55;;;;;;;8.57;1.40;;;;;;;-144.73;100.00;54366.66;5018575;28;20042;-72
2023/04/11 05:11:22;;;;;;;10.02;2.05;;;;;;;-144.73;100.00;54395.38;5048165;28;20021;-73
2023/04/11 05:13:47;;;;;;;6.95;2.00;;;;;;;-144.73;100.00;54389.22;5011249;28;20033;-74
2023/04/11 05:16:13;;;;;;;15.80;2.35;;;;;;;-144.73;100.00;54378.97;5026432;28;20404;-72
2023/04/11 05:18:38;;;;;;;6.65;2.30;;;;;;;-144.73;100.00;54415.91;5031084;28;20025;-73
2023/04/11 05:21:04;;;;;;;10.43;2.25;;;;;;;-144.73;100.00;54420.00;5039193;28;20543;-72
2023/04/11 05:23:30;;;;;;;8.90;2.15;;;;;;;-144.73;100.00;54391.28;5023781;28;20071;-73
2023/04/11 05:25:56;;;;;;;10.77;2.50;;;;;;;-144.73;100.00;54391.28;5013688;28;20025;-73
2023/04/11 05:28:21;;;;;;;6.20;1.98;;;;;;;-144.73;100.00;54387.19;5017821;28;20047;-72
2023/04/11 05:30:47;;;;;;;8.73;1.80;;;;;;;-144.73;100.00;54399.50;5043048;28;20021;-73
2023/04/11 05:33:14;;;;;;;10.85;2.10;;;;;;;-144.73;100.00;54387.19;5035572;28;20094;-73
2023/04/11 05:35:40;;;;;;;6.63;2.08;;;;;;;-144.73;100.00;54395.38;5030241;28;20067;-73
2023/04/11 05:38:06;;;;;;;10.95;2.28;;;;;;;-144.73;100.00;54407.69;5035012;28;20017;-72
2023/04/11 05:40:31;;;;;;;7.88;2.13;;;;;;;-144.73;100.00;54399.50;5035818;28;20028;-72
2023/04/11 05:42:57;;;;;;;12.20;2.08;;;;;;;-144.73;100.00;54407.69;5048758;28;20541;-71
2023/04/11 05:45:22;;;;;;;8.30;2.10;;;;;;;-144.73;100.00;54376.91;5016619;28;20017;-73
2023/04/11 05:47:48;;;;;;;12.75;2.03;;;;;;;-144.73;100.00;54411.81;5034568;28;20075;-74
2023/04/11 05:50:14;;;;;;;17.27;2.40;;;;;;;-144.73;100.00;54409.75;5016745;28;20037;-73
2023/04/11 05:52:40;;;;;;;9.18;2.45;;;;;;;-144.73;100.00;54374.84;5019319;28;20021;-72
2023/04/11 05:55:06;;;;;;;8.05;1.88;;;;;;;-144.73;100.00;54432.31;5054145;28;20017;-74
2023/04/11 05:57:31;;;;;;;14.65;2.67;;;;;;;-144.73;100.00;54391.28;5036453;28;20028;-73
2023/04/11 06:00:00;;;;;;;15.65;3.15;;;;;;;-144.73;100.00;54415.91;5036700;28;20490;-72
2023/04/11 06:02:29;;;;;;;10.80;2.42;;;;;;;-144.73;100.00;54391.28;5020927;28;20018;-75
2023/04/11 06:04:54;;;;;;;17.95;2.80;;;;;;;-144.73;100.00;54383.06;5024016;28;20032;-72
2023/04/11 06:07:21;;;;;;;12.00;2.42;;;;;;;-144.73;100.00;54452.84;5036418;28;20029;-73
2023/04/11 06:09:47;;;;;;;9.00;2.22;;;;;;;-144.73;100.00;54370.75;5026746;28;20392;-73
2023/04/11 06:12:13;;;;;;;9.40;2.15;;;;;;;-144.73;100.00;54378.97;5012845;28;20093;-73
2023/04/11 06:14:38;;;;;;;8.40;2.20;;;;;;;-144.73;100.00;54387.19;5013099;28;20113;-74
2023/04/11 06:17:04;;;;;;;20.05;2.67;;;;;;;-144.73;100.00;54407.69;5012988;28;20050;-73
2023/04/11 06:19:30;;;;;;;7.85;2.20;;;;;;;-144.73;100.00;54420.00;5013939;28;20026;-73
2023/04/11 06:21:56;;;;;;;10.48;2.38;;;;;;;-144.73;100.00;54366.66;5014146;28;20129;-74
2023/04/11 06:24:34;;;;;;;10.00;2.47;;;;;;;-144.73;100.00;54407.69;5014338;28;20033;-75
2023/04/11 06:27:00;;;;;;;8.27;2.72;;;;;;;-144.73;100.00;54387.19;5014416;28;20120;-74
2023/04/11 06:29:26;;;;;;;7.90;2.17;;;;;;;-144.73;100.00;54376.91;5013956;28;20548;-73
2023/04/11 06:31:51;;;;;;;10.20;2.38;;;;;;;-144.73;100.00;54407.69;5030724;28;20078;-75
2023/04/11 06:34:17;;;;;;;13.38;2.53;;;;;;;-144.73;100.00;54391.28;5036085;28;20075;-74
2023/04/11 06:36:42;;;;;;;10.25;2.80;;;;;;;-144.73;100.00;54413.84;5035979;28;20017;-74
2023/04/11 06:39:08;;;;;;;14.77;3.15;;;;;;;-144.73;100.00;54411.81;5052163;28;20028;-75
2023/04/11 06:41:35;;;;;;;13.05;3.72;;;;;;;-144.73;100.00;54407.69;5039031;28;20029;-74
2023/04/11 06:44:00;;;;;;;15.57;3.80;;;;;;;-144.73;100.00;54415.91;5012603;28;20021;-73
2023/04/11 06:46:26;;;;;;;14.30;4.28;;;;;;;-144.73;100.00;54413.84;5012719;28;20022;-74
2023/04/11 06:48:52;;;;;;;10.10;4.20;;;;;;;-144.73;100.00;54407.69;5012832;28;20033;-74
2023/04/11 06:51:17;;;;;;;14.27;4.55;;;;;;;-144.73;100.00;54378.97;5029521;28;20114;-74
2023/04/11 06:53:42;;;;;;;14.77;5.32;;;;;;;-144.73;100.00;54387.19;5013548;28;20070;-74
2023/04/11 06:56:09;;;;;;;14.70;5.10;;;;;;;-144.73;100.00;54415.91;5029314;28;20017;-74
2023/04/11 06:58:35;;;;;;;12.63;5.32;;;;;;;-144.73;100.00;54391.28;5012286;28;20500;-74
2023/04/11 07:01:00;;;;;;;16.27;5.97;;;;;;;-144.73;100.00;54391.28;5012526;28;20025;-74
2023/04/11 07:03:26;;;;;;;12.02;5.38;;;;;;;-144.73;100.00;54411.81;5012181;28;20022;-74
2023/04/11 07:05:51;;;;;;;19.17;5.60;;;;;;;-144.73;100.00;54415.91;5012208;28;20022;-76
2023/04/11 07:08:17;;;;;;;7.57;4.20;;;;;;;-144.73;100.00;54428.22;5029303;28;20037;-75
2023/04/11 07:10:42;;;;;;;9.43;3.78;;;;;;;-144.73;100.00;54381.00;5012104;28;20034;-74
2023/04/11 07:13:07;;;;;;;14.27;4.00;;;;;;;-144.73;100.00;54407.69;5013320;28;20021;-75
2023/04/11 07:15:33;;;;;;;12.35;3.67;;;;;;;-144.73;100.00;54415.91;5028821;28;20045;-74
2023/04/11 07:17:58;;;;;;;9.38;3.13;;;;;;;-144.73;100.00;54424.13;5012598;28;20037;-74
2023/04/11 07:20:24;;;;;;;8.88;2.53;;;;;;;-144.73;100.00;54395.38;5012371;28;20137;-75
2023/04/11 07:22:49;;;;;;;7.65;2.28;;;;;;;-144.73;100.00;54428.22;5012373;28;20029;-74
2023/04/11 07:25:14;;;;;;;5.50;1.50;;;;;;;-144.73;100.00;54420.00;5011879;28;20049;-74
2023/04/11 07:27:42;;;;;;;6.10;1.63;;;;;;;-144.73;100.00;54407.69;5020950;28;20498;-73
2023/04/11 07:30:08;;;;;;;3.95;0.95;;;;;;;-144.73;100.00;54383.06;5022700;28;20182;-72
2023/04/11 07:32:33;;;;;;;1.67;0.93;;;;;;;-144.73;100.00;54399.50;5024757;28;20024;-73
2023/04/11 07:34:59;;;;;;;2.70;0.90;;;;;;;-144.73;100.00;54399.50;5039815;28;20024;-72
2023/04/11 07:37:25;;;;;;;1.42;0.60;;;;;;;-144.73;100.00;54430.28;5027185;28;20037;-75
2023/04/11 07:39:51;;;;;;;2.78;1.00;;;;;;;-144.73;100.00;54383.06;5043191;28;20033;-75
2023/04/11 07:42:16;;;;;;;1.80;0.70;;;;;;;-144.73;100.00;54391.28;5028152;28;20087;-76
2023/04/11 07:44:42;;;;;;;2.20;1.25;;;;;;;-144.73;100.00;54415.91;5025481;28;20048;-75
2023/04/11 07:47:07;;;;;;;2.35;0.90;;;;;;;-144.73;100.00;54360.50;5019636;28;20113;-76
2023/04/11 07:49:32;;;;;;;3.58;1.00;;;;;;;-144.73;100.00;54407.69;5038339;28;20057;-75
2023/04/11 07:51:58;;;;;;;2.05;1.00;;;;;;;-144.73;100.00;54452.84;5018949;28;20488;-75
2023/04/11 07:54:24;;;;;;;3.42;1.40;;;;;;;-144.73;100.00;54415.91;5019616;28;20029;-68
2023/04/11 07:56:49;;;;;;;4.10;1.40;;;;;;;-144.73;100.00;54378.97;5018562;28;20025;-68
2023/04/11 07:59:15;;;;;;;2.45;1.10;;;;;;;-144.73;100.00;54413.84;5030923;28;20025;-68
2023/04/11 08:01:41;;;;;;;3.53;1.10;;;;;;;-144.73;100.00;54420.00;5031328;28;20021;-69
2023/04/11 08:04:06;;;;;;;1.15;0.90;;;;;;;-144.73;100.00;54378.97;5031590;28;20372;-69
2023/04/11 08:06:32;;;;;;;5.90;1.40;;;;;;;-144.73;100.00;54383.06;5032110;28;20072;-69
2023/04/11 08:08:59;;;;;;;2.83;1.33;;;;;;;-144.73;100.00;54395.38;5032680;28;20034;-71
2023/04/11 08:11:25;;;;;;;2.95;0.90;;;;;;;-144.73;100.00;54415.91;5030319;28;20091;-70
2023/04/11 08:13:50;;;;;;;4.35;1.23;;;;;;;-144.73;100.00;54411.81;5015196;28;20014;-71
2023/04/11 08:16:16;;;;;;;2.10;0.90;;;;;;;-144.73;100.00;54417.97;5009294;28;20025;-71
2023/04/11 08:18:41;;;;;;;2.95;1.00;;;;;;;-144.73;100.00;54415.91;5021774;28;20264;-70
2023/04/11 08:21:09;;;;;;;3.08;1.27;;;;;;;-144.73;100.00;54420.00;5000025;28;20049;-70
2023/04/11 08:23:36;;;;;;;3.88;1.20;;;;;;;-144.73;100.00;54407.69;5024789;28;20108;-72
2023/04/11 08:26:01;;;;;;;7.50;1.48;;;;;;;-144.73;100.00;54436.44;5013109;28;20100;-70
2023/04/11 08:28:27;;;;;;;5.53;1.95;;;;;;;-144.73;100.00;54436.44;5022128;28;20033;-71
2023/04/11 08:30:57;;;;;;;3.97;1.58;;;;;;;-144.73;100.00;54407.69;5022319;28;20041;-70
2023/04/11 08:33:26;;;;;;;7.07;1.70;;;;;;;-144.73;100.00;54387.19;5016874;28;20472;-69
2023/04/11 08:35:52;;;;;;;5.10;1.98;;;;;;;-144.73;100.00;54364.59;5034885;28;20034;-70
2023/04/11 08:38:19;;;;;;;7.95;2.47;;;;;;;-144.73;100.00;54383.06;5043857;28;20032;-73
2023/04/11 08:40:47;;;;;;;8.82;2.22;;;;;;;-144.73;100.00;54407.69;5037527;28;20087;-72
2023/04/11 08:43:13;;;;;;;5.57;2.20;;;;;;;-144.73;100.00;54391.28;5005263;28;20033;-71
2023/04/11 08:45:39;;;;;;;3.60;2.13;;;;;;;-144.73;100.00;54415.91;5005487;28;20034;-69
2023/04/11 08:48:05;;;;;;;6.28;2.42;;;;;;;-144.73;100.00;54374.84;5011293;28;20057;-70
2023/04/11 08:50:32;;;;;;;12.27;2.95;;;;;;;-144.73;100.00;54391.28;5004636;28;20053;-70
2023/04/11 08:53:01;;;;;;;10.35;3.17;;;;;;;-144.73;100.00;54378.97;5013999;28;20028;-69
2023/04/11 08:55:26;;;;;;;7.47;2.90;;;;;;;-144.73;100.00;54407.69;5010276;28;20050;-69
2023/04/11 08:57:52;;;;;;;8.00;3.90;;;;;;;-144.73;100.00;54456.97;5019237;28;20025;-70
2023/04/11 09:00:22;;;;;;;12.93;5.22;;;;;;;-144.73;100.00;54399.50;5029624;28;20044;-69
2023/04/11 09:03:01;;;;;;;9.90;4.88;;;;;;;-144.73;100.00;54415.91;5012640;28;20033;-70
2023/04/11 09:05:32;;;;;;;10.00;5.43;;;;;;;-144.73;100.00;54411.81;5011130;28;20053;-71
2023/04/11 09:08:00;;;;;;;11.95;6.05;;;;;;;-144.73;100.00;54395.38;5021499;28;20136;-69
2023/04/11 09:10:26;;;;;;;12.65;5.95;;;;;;;-144.73;100.00;54391.28;5022004;28;20056;-72
2023/04/11 09:12:54;;;;;;;15.10;6.85;;;;;;;-144.73;100.00;54424.13;5007605;28;20029;-70
2023/04/11 09:15:21;;;;;;;15.02;6.43;;;;;;;-144.73;100.00;54415.91;5019702;28;20112;-69
2023/04/11 09:17:48;;;;;;;12.40;6.00;;;;;;;-144.73;100.00;54436.44;5019313;28;20021;-69
2023/04/11 09:20:19;;;;;;;19.98;7.25;;;;;;;-144.73;100.00;54409.75;5007488;28;20029;-69
2023/04/11 09:22:49;;;;;;;15.93;6.65;;;;;;;-144.73;100.00;54407.69;5020293;28;20036;-69
2023/04/11 09:25:14;;;;;;;11.20;6.13;;;;;;;-144.73;100.00;54428.22;5005795;28;20476;-68
2023/04/11 09:27:40;;;;;;;12.75;7.38;;;;;;;-144.73;100.00;54362.53;5005436;28;20032;-67
2023/04/11 09:30:23;;;;;;;21.67;8.07;;;;;;;-144.73;100.00;54436.44;5009958;28;20033;-68
2023/04/11 09:32:53;;;;;;;19.65;6.80;;;;;;;-144.73;100.00;54415.91;5024021;28;20088;-69
2023/04/11 09:35:24;;;;;;;21.40;8.05;;;;;;;-144.73;100.00;54407.69;5025389;28;20038;-69
2023/04/11 09:37:52;;;;;;;12.30;7.03;;;;;;;-144.73;100.00;54420.00;5026955;28;20033;-68
2023/04/11 09:40:22;;;;;;;24.65;8.23;;;;;;;-144.73;100.00;54436.44;5028239;28;20037;-71
2023/04/11 09:42:55;;;;;;;22.17;7.20;;;;;;;-144.73;100.00;54448.75;5026180;28;20017;-70
2023/04/11 09:45:22;;;;;;;16.60;7.10;;;;;;;-144.73;100.00;54395.38;5009677;28;20041;-70
2023/04/11 09:47:50;;;;;;;18.48;7.53;;;;;;;-144.73;100.00;54395.38;5025925;28;20024;-71
2023/04/11 09:50:16;;;;;;;21.00;6.38;;;;;;;-144.73;100.00;54395.38;5009891;28;20053;-70
2023/04/11 09:52:43;;;;;;;11.90;5.82;;;;;;;-144.73;100.00;54407.69;5008949;28;20476;-69
2023/04/11 09:55:15;;;;;;;11.18;4.78;;;;;;;-144.73;100.00;54399.50;5003695;28;20109;-70
2023/04/11 09:57:44;;;;;;;15.10;5.38;;;;;;;-144.73;100.00;54309.19;5020291;28;20033;-70
2023/04/11 10:00:17;;;;;;;8.50;3.88;;;;;;;-144.73;100.00;54436.44;5008283;28;20033;-69
2023/04/11 10:02:51;;;;;;;15.07;4.18;;;;;;;-144.73;100.00;54450.81;5027800;28;20492;-69
2023/04/11 10:05:18;;;;;;;13.85;4.78;;;;;;;-144.73;100.00;54444.66;5022039;28;20025;-68
2023/04/11 10:08:05;;;;;;;10.50;4.10;;;;;;;-144.73;100.00;54420.00;5024451;28;20127;-67
2023/04/11 10:10:31;;;;;;;7.65;3.28;;;;;;;-144.73;100.00;54387.19;5022937;28;20099;-67
2023/04/11 10:12:57;;;;;;;8.15;2.88;;;;;;;-144.73;100.00;54399.50;5007212;28;20400;-68
2023/04/11 10:15:22;;;;;;;8.90;2.35;;;;;;;-144.73;100.00;54424.13;5006630;28;20099;-68
2023/04/11 10:18:08;;;;;;;10.18;3.00;;;;;;;-144.73;100.00;54444.66;5007714;28;20072;-67
2023/04/11 10:20:34;;;;;;;11.10;2.83;;;;;;;-144.73;100.00;54436.44;5021065;28;20588;-68
2023/04/11 10:23:00;;;;;;;11.10;2.78;;;;;;;-144.73;100.00;54395.38;5021869;28;20044;-67
2023/04/11 10:25:26;;;;;;;9.88;3.28;;;;;;;-144.73;100.00;54395.38;5020943;28;20041;-67
2023/04/11 10:28:03;;;;;;;6.45;2.42;;;;;;;-144.73;100.00;54448.75;5022710;28;20056;-66
2023/04/11 10:30:44;;;;;;;13.00;2.78;;;;;;;-144.73;100.00;54424.13;5008322;28;20041;-67
2023/04/11 10:33:16;;;;;;;10.02;2.83;;;;;;;-144.73;100.00;54411.81;5015041;28;20056;-68
2023/04/11 10:36:04;;;;;;;6.95;2.42;;;;;;;-144.73;100.00;54407.69;5009014;28;20057;-67
2023/04/11 10:38:36;;;;;;;7.78;3.22;;;;;;;-144.73;100.00;54395.38;5009874;28;20014;-68
2023/04/11 10:41:32;;;;;;;5.72;2.60;;;;;;;-144.73;100.00;54407.69;5049789;28;20086;-69
2023/04/11 10:44:17;;;;;;;6.25;2.05;;;;;;;-144.73;100.00;54428.22;5040097;28;20029;-70
2023/04/11 10:46:44;;;;;;;7.32;2.17;;;;;;;-144.73;100.00;54383.06;5019544;28;20050;-69
2023/04/11 10:49:09;;;;;;;6.95;2.17;;;;;;;-144.73;100.00;54440.53;5021851;28;20029;-70
2023/04/11 10:51:34;;;;;;;5.78;1.83;;;;;;;-144.73;100.00;54391.28;5014791;28;20033;-69
2023/04/11 10:54:00;;;;;;;3.72;1.63;;;;;;;-144.73;100.00;54424.13;5023690;28;20029;-68
2023/04/11 10:56:51;;;;;;;4.80;1.60;;;;;;;-144.73;100.00;54391.28;5041058;28;20029;-68
2023/04/11 10:59:31;;;;;;;2.38;1.25;;;;;;;-144.73;100.00;54395.38;5034622;28;20025;-68
2023/04/11 11:02:00;;;;;;;3.85;1.30;;;;;;;-144.73;100.00;54383.06;5041183;28;20036;-67
2023/04/11 11:04:39;;;;;;;4.22;1.20;;;;;;;-144.73;100.00;54440.53;5019185;28;20020;-67
2023/04/11 11:07:06;;;;;;;3.08;0.90;;;;;;;-144.73;100.00;54432.31;5010074;28;20030;-67